sensor_id;sensor_type;location;lat;lon;timestamp;P1;durP1;ratioP1;P2;durP2;ratioP2
24305;SDS011;12423;48.768;8.850;2022-08-14T00:00:09;6.07;;;2.70;;
24305;SDS011;12423;48.768;8.850;2022-08-14T00:02:15;3.60;;;2.40;;
24305;SDS011;12423;48.768;8.850;2022-08-14T00:04:16;7.43;;;2.83;;
24305;SDS011;12423;48.768;8.850;2022-08-14T00:06:17;4.80;;;2.50;;
24305;SDS011;12423;48.768;8.850;2022-08-14T00:08:18;3.65;;;2.50;;
24305;SDS011;12423;48.768;8.850;2022-08-14T00:10:20;7.05;;;2.67;;
24305;SDS011;12423;48.768;8.850;2022-08-14T00:12:22;3.15;;;2.38;;
24305;SDS011;12423;48.768;8.850;2022-08-14T00:14:25;8.43;;;2.60;;
24305;SDS011;12423;48.768;8.850;2022-08-14T00:16:28;3.75;;;2.70;;
24305;SDS011;12423;48.768;8.850;2022-08-14T00:18:29;3.70;;;2.40;;
24305;SDS011;12423;48.768;8.850;2022-08-14T00:20:31;4.05;;;2.13;;
24305;SDS011;12423;48.768;8.850;2022-08-14T00:22:33;4.47;;;2.67;;
24305;SDS011;12423;48.768;8.850;2022-08-14T00:24:34;5.63;;;2.75;;
24305;SDS011;12423;48.768;8.850;2022-08-14T00:26:35;5.70;;;2.25;;
24305;SDS011;12423;48.768;8.850;2022-08-14T00:28:36;3.33;;;2.17;;
24305;SDS011;12423;48.768;8.850;2022-08-14T00:30:37;4.85;;;2.40;;
24305;SDS011;12423;48.768;8.850;2022-08-14T00:32:39;6.25;;;2.50;;
24305;SDS011;12423;48.768;8.850;2022-08-14T00:34:40;4.70;;;2.42;;
24305;SDS011;12423;48.768;8.850;2022-08-14T00:36:41;4.78;;;2.40;;
24305;SDS011;12423;48.768;8.850;2022-08-14T00:38:42;3.08;;;2.33;;
24305;SDS011;12423;48.768;8.850;2022-08-14T00:40:43;9.40;;;3.03;;
24305;SDS011;12423;48.768;8.850;2022-08-14T00:42:44;6.45;;;2.67;;
24305;SDS011;12423;48.768;8.850;2022-08-14T00:44:45;3.55;;;2.58;;
24305;SDS011;12423;48.768;8.850;2022-08-14T00:46:46;4.80;;;2.47;;
24305;SDS011;12423;48.768;8.850;2022-08-14T00:48:48;4.38;;;2.45;;
24305;SDS011;12423;48.768;8.850;2022-08-14T00:51:08;6.30;;;2.90;;
24305;SDS011;12423;48.768;8.850;2022-08-14T00:53:29;5.63;;;2.70;;
24305;SDS011;12423;48.768;8.850;2022-08-14T00:55:31;4.18;;;2.90;;
24305;SDS011;12423;48.768;8.850;2022-08-14T00:57:35;7.43;;;2.55;;
24305;SDS011;12423;48.768;8.850;2022-08-14T00:59:37;4.45;;;2.40;;
24305;SDS011;12423;48.768;8.850;2022-08-14T01:01:39;4.85;;;2.20;;
24305;SDS011;12423;48.768;8.850;2022-08-14T01:03:40;5.65;;;2.55;;
24305;SDS011;12423;48.768;8.850;2022-08-14T01:05:41;3.97;;;2.53;;
24305;SDS011;12423;48.768;8.850;2022-08-14T01:08:01;4.63;;;2.42;;
24305;SDS011;12423;48.768;8.850;2022-08-14T01:10:03;6.72;;;2.72;;
24305;SDS011;12423;48.768;8.850;2022-08-14T01:12:05;4.72;;;2.40;;
24305;SDS011;12423;48.768;8.850;2022-08-14T01:14:06;3.63;;;2.25;;
24305;SDS011;12423;48.768;8.850;2022-08-14T01:16:08;8.23;;;2.70;;
24305;SDS011;12423;48.768;8.850;2022-08-14T01:18:14;3.22;;;2.22;;
24305;SDS011;12423;48.768;8.850;2022-08-14T01:20:34;8.82;;;2.20;;
24305;SDS011;12423;48.768;8.850;2022-08-14T01:22:54;7.32;;;2.60;;
24305;SDS011;12423;48.768;8.850;2022-08-14T01:24:55;4.68;;;2.60;;
24305;SDS011;12423;48.768;8.850;2022-08-14T01:26:57;4.57;;;2.33;;
24305;SDS011;12423;48.768;8.850;2022-08-14T01:28:59;5.97;;;2.38;;
24305;SDS011;12423;48.768;8.850;2022-08-14T01:31:01;3.20;;;2.42;;
24305;SDS011;12423;48.768;8.850;2022-08-14T01:33:11;3.40;;;2.30;;
24305;SDS011;12423;48.768;8.850;2022-08-14T01:35:12;3.90;;;2.78;;
24305;SDS011;12423;48.768;8.850;2022-08-14T01:37:13;5.68;;;2.47;;
24305;SDS011;12423;48.768;8.850;2022-08-14T01:39:16;3.75;;;2.70;;
24305;SDS011;12423;48.768;8.850;2022-08-14T01:41:18;4.32;;;2.67;;
24305;SDS011;12423;48.768;8.850;2022-08-14T01:43:21;5.78;;;2.70;;
24305;SDS011;12423;48.768;8.850;2022-08-14T01:45:23;3.40;;;2.60;;
24305;SDS011;12423;48.768;8.850;2022-08-14T01:47:25;4.18;;;2.42;;
24305;SDS011;12423;48.768;8.850;2022-08-14T01:49:26;4.47;;;2.63;;
24305;SDS011;12423;48.768;8.850;2022-08-14T01:51:28;4.43;;;2.88;;
24305;SDS011;12423;48.768;8.850;2022-08-14T01:53:30;5.55;;;2.63;;
24305;SDS011;12423;48.768;8.850;2022-08-14T01:55:31;3.50;;;2.70;;
24305;SDS011;12423;48.768;8.850;2022-08-14T01:57:33;4.50;;;2.83;;
24305;SDS011;12423;48.768;8.850;2022-08-14T01:59:37;3.40;;;2.60;;
24305;SDS011;12423;48.768;8.850;2022-08-14T02:01:40;3.30;;;2.70;;
24305;SDS011;12423;48.768;8.850;2022-08-14T02:03:43;4.55;;;2.85;;
24305;SDS011;12423;48.768;8.850;2022-08-14T02:05:44;4.03;;;3.10;;
24305;SDS011;12423;48.768;8.850;2022-08-14T02:07:45;5.72;;;2.63;;
24305;SDS011;12423;48.768;8.850;2022-08-14T02:09:46;4.78;;;2.67;;
24305;SDS011;12423;48.768;8.850;2022-08-14T02:11:48;5.63;;;2.75;;
24305;SDS011;12423;48.768;8.850;2022-08-14T02:15:52;4.60;;;2.65;;
24305;SDS011;12423;48.768;8.850;2022-08-14T02:17:54;3.90;;;2.55;;
24305;SDS011;12423;48.768;8.850;2022-08-14T02:19:55;4.93;;;2.67;;
24305;SDS011;12423;48.768;8.850;2022-08-14T02:21:57;4.35;;;2.70;;
24305;SDS011;12423;48.768;8.850;2022-08-14T02:24:00;3.85;;;2.70;;
24305;SDS011;12423;48.768;8.850;2022-08-14T02:26:12;3.92;;;2.85;;
24305;SDS011;12423;48.768;8.850;2022-08-14T02:28:15;3.00;;;2.58;;
24305;SDS011;12423;48.768;8.850;2022-08-14T02:30:16;3.33;;;2.33;;
24305;SDS011;12423;48.768;8.850;2022-08-14T02:32:17;6.13;;;2.55;;
24305;SDS011;12423;48.768;8.850;2022-08-14T02:36:22;5.38;;;2.50;;
24305;SDS011;12423;48.768;8.850;2022-08-14T02:38:23;4.55;;;2.90;;
24305;SDS011;12423;48.768;8.850;2022-08-14T02:40:24;5.78;;;3.08;;
24305;SDS011;12423;48.768;8.850;2022-08-14T02:42:27;4.68;;;2.67;;
24305;SDS011;12423;48.768;8.850;2022-08-14T02:44:28;4.45;;;2.58;;
24305;SDS011;12423;48.768;8.850;2022-08-14T02:46:29;7.07;;;2.70;;
24305;SDS011;12423;48.768;8.850;2022-08-14T02:48:30;3.85;;;2.70;;
24305;SDS011;12423;48.768;8.850;2022-08-14T02:50:35;3.55;;;2.70;;
24305;SDS011;12423;48.768;8.850;2022-08-14T02:52:38;4.78;;;2.83;;
24305;SDS011;12423;48.768;8.850;2022-08-14T02:54:39;3.45;;;2.50;;
24305;SDS011;12423;48.768;8.850;2022-08-14T02:56:40;3.70;;;2.72;;
24305;SDS011;12423;48.768;8.850;2022-08-14T02:58:43;3.90;;;2.53;;
24305;SDS011;12423;48.768;8.850;2022-08-14T03:00:48;6.38;;;2.72;;
24305;SDS011;12423;48.768;8.850;2022-08-14T03:02:49;7.97;;;3.10;;
24305;SDS011;12423;48.768;8.850;2022-08-14T03:04:50;4.13;;;3.00;;
24305;SDS011;12423;48.768;8.850;2022-08-14T03:06:53;4.03;;;3.00;;
24305;SDS011;12423;48.768;8.850;2022-08-14T03:08:54;4.00;;;2.88;;
24305;SDS011;12423;48.768;8.850;2022-08-14T03:10:56;4.93;;;3.10;;
24305;SDS011;12423;48.768;8.850;2022-08-14T03:12:59;4.13;;;2.75;;
24305;SDS011;12423;48.768;8.850;2022-08-14T03:15:04;3.72;;;3.15;;
24305;SDS011;12423;48.768;8.850;2022-08-14T03:17:13;3.28;;;2.50;;
24305;SDS011;12423;48.768;8.850;2022-08-14T03:19:15;4.40;;;2.80;;
24305;SDS011;12423;48.768;8.850;2022-08-14T03:21:18;5.85;;;2.90;;
24305;SDS011;12423;48.768;8.850;2022-08-14T03:23:20;4.15;;;3.28;;
24305;SDS011;12423;48.768;8.850;2022-08-14T03:25:21;4.53;;;2.83;;
24305;SDS011;12423;48.768;8.850;2022-08-14T03:27:22;5.57;;;2.95;;
24305;SDS011;12423;48.768;8.850;2022-08-14T03:29:24;5.57;;;2.95;;
24305;SDS011;12423;48.768;8.850;2022-08-14T03:31:25;4.47;;;3.03;;
24305;SDS011;12423;48.768;8.850;2022-08-14T03:33:27;3.33;;;2.53;;
24305;SDS011;12423;48.768;8.850;2022-08-14T03:35:28;5.53;;;2.70;;
24305;SDS011;12423;48.768;8.850;2022-08-14T03:37:30;5.82;;;2.92;;
24305;SDS011;12423;48.768;8.850;2022-08-14T03:39:33;3.83;;;2.67;;
24305;SDS011;12423;48.768;8.850;2022-08-14T03:41:34;4.35;;;2.90;;
24305;SDS011;12423;48.768;8.850;2022-08-14T03:43:35;7.35;;;3.35;;
24305;SDS011;12423;48.768;8.850;2022-08-14T03:45:37;4.32;;;2.78;;
24305;SDS011;12423;48.768;8.850;2022-08-14T03:47:39;4.97;;;2.95;;
24305;SDS011;12423;48.768;8.850;2022-08-14T03:49:40;5.32;;;2.95;;
24305;SDS011;12423;48.768;8.850;2022-08-14T03:51:43;4.35;;;2.83;;
24305;SDS011;12423;48.768;8.850;2022-08-14T03:53:45;3.75;;;2.78;;
24305;SDS011;12423;48.768;8.850;2022-08-14T03:55:47;5.13;;;2.63;;
24305;SDS011;12423;48.768;8.850;2022-08-14T03:57:48;5.13;;;2.95;;
24305;SDS011;12423;48.768;8.850;2022-08-14T03:59:49;3.65;;;2.83;;
24305;SDS011;12423;48.768;8.850;2022-08-14T04:01:50;4.80;;;2.53;;
24305;SDS011;12423;48.768;8.850;2022-08-14T04:03:53;4.65;;;3.00;;
24305;SDS011;12423;48.768;8.850;2022-08-14T04:05:58;3.95;;;3.00;;
24305;SDS011;12423;48.768;8.850;2022-08-14T04:07:59;8.02;;;3.42;;
24305;SDS011;12423;48.768;8.850;2022-08-14T04:10:00;3.53;;;2.72;;
24305;SDS011;12423;48.768;8.850;2022-08-14T04:12:01;3.92;;;2.97;;
24305;SDS011;12423;48.768;8.850;2022-08-14T04:14:03;5.00;;;2.67;;
24305;SDS011;12423;48.768;8.850;2022-08-14T04:16:06;4.32;;;3.00;;
24305;SDS011;12423;48.768;8.850;2022-08-14T04:18:19;3.45;;;2.90;;
24305;SDS011;12423;48.768;8.850;2022-08-14T04:20:21;4.88;;;2.80;;
24305;SDS011;12423;48.768;8.850;2022-08-14T04:22:22;3.35;;;2.47;;
24305;SDS011;12423;48.768;8.850;2022-08-14T04:24:23;5.15;;;3.20;;
24305;SDS011;12423;48.768;8.850;2022-08-14T04:26:25;5.13;;;3.15;;
24305;SDS011;12423;48.768;8.850;2022-08-14T04:28:27;4.72;;;2.90;;
24305;SDS011;12423;48.768;8.850;2022-08-14T04:30:29;4.18;;;2.97;;
24305;SDS011;12423;48.768;8.850;2022-08-14T04:32:30;5.18;;;3.47;;
24305;SDS011;12423;48.768;8.850;2022-08-14T04:34:33;4.70;;;3.58;;
24305;SDS011;12423;48.768;8.850;2022-08-14T04:36:35;5.88;;;3.45;;
24305;SDS011;12423;48.768;8.850;2022-08-14T04:38:57;6.13;;;3.80;;
24305;SDS011;12423;48.768;8.850;2022-08-14T04:41:16;7.15;;;4.30;;
24305;SDS011;12423;48.768;8.850;2022-08-14T04:43:52;5.70;;;4.68;;
24305;SDS011;12423;48.768;8.850;2022-08-14T04:45:53;8.57;;;6.18;;
24305;SDS011;12423;48.768;8.850;2022-08-14T04:47:54;6.43;;;5.43;;
24305;SDS011;12423;48.768;8.850;2022-08-14T04:50:13;6.20;;;5.03;;
24305;SDS011;12423;48.768;8.850;2022-08-14T04:52:14;7.38;;;4.03;;
24305;SDS011;12423;48.768;8.850;2022-08-14T04:54:15;4.85;;;3.30;;
24305;SDS011;12423;48.768;8.850;2022-08-14T04:56:17;6.00;;;3.00;;
24305;SDS011;12423;48.768;8.850;2022-08-14T04:58:23;5.20;;;2.92;;
24305;SDS011;12423;48.768;8.850;2022-08-14T05:00:26;4.03;;;2.90;;
24305;SDS011;12423;48.768;8.850;2022-08-14T05:02:27;5.45;;;3.17;;
24305;SDS011;12423;48.768;8.850;2022-08-14T05:04:28;5.13;;;3.17;;
24305;SDS011;12423;48.768;8.850;2022-08-14T05:06:29;7.65;;;3.22;;
24305;SDS011;12423;48.768;8.850;2022-08-14T05:08:31;3.78;;;2.80;;
24305;SDS011;12423;48.768;8.850;2022-08-14T05:10:33;5.15;;;3.65;;
24305;SDS011;12423;48.768;8.850;2022-08-14T05:12:34;7.70;;;3.80;;
24305;SDS011;12423;48.768;8.850;2022-08-14T05:14:36;7.10;;;3.70;;
24305;SDS011;12423;48.768;8.850;2022-08-14T05:16:37;4.15;;;3.03;;
24305;SDS011;12423;48.768;8.850;2022-08-14T05:18:38;4.63;;;3.15;;
24305;SDS011;12423;48.768;8.850;2022-08-14T05:20:40;4.88;;;3.20;;
24305;SDS011;12423;48.768;8.850;2022-08-14T05:22:43;4.20;;;3.05;;
24305;SDS011;12423;48.768;8.850;2022-08-14T05:24:45;4.47;;;3.13;;
24305;SDS011;12423;48.768;8.850;2022-08-14T05:26:50;4.15;;;3.05;;
24305;SDS011;12423;48.768;8.850;2022-08-14T05:28:51;4.32;;;3.28;;
24305;SDS011;12423;48.768;8.850;2022-08-14T05:30:53;8.55;;;3.25;;
24305;SDS011;12423;48.768;8.850;2022-08-14T05:32:55;6.25;;;3.33;;
24305;SDS011;12423;48.768;8.850;2022-08-14T05:34:57;4.50;;;3.22;;
24305;SDS011;12423;48.768;8.850;2022-08-14T05:36:59;5.72;;;3.15;;
24305;SDS011;12423;48.768;8.850;2022-08-14T05:39:02;5.65;;;3.08;;
24305;SDS011;12423;48.768;8.850;2022-08-14T05:41:04;4.20;;;3.10;;
24305;SDS011;12423;48.768;8.850;2022-08-14T05:43:07;5.82;;;3.70;;
24305;SDS011;12423;48.768;8.850;2022-08-14T05:45:09;4.68;;;3.25;;
24305;SDS011;12423;48.768;8.850;2022-08-14T05:47:10;3.90;;;2.97;;
24305;SDS011;12423;48.768;8.850;2022-08-14T05:49:11;3.80;;;3.20;;
24305;SDS011;12423;48.768;8.850;2022-08-14T05:51:13;4.53;;;3.30;;
24305;SDS011;12423;48.768;8.850;2022-08-14T05:53:14;4.47;;;3.17;;
24305;SDS011;12423;48.768;8.850;2022-08-14T05:55:15;4.25;;;3.03;;
24305;SDS011;12423;48.768;8.850;2022-08-14T05:57:17;3.97;;;2.83;;
24305;SDS011;12423;48.768;8.850;2022-08-14T05:59:18;4.32;;;3.00;;
24305;SDS011;12423;48.768;8.850;2022-08-14T06:01:19;3.88;;;2.60;;
24305;SDS011;12423;48.768;8.850;2022-08-14T06:03:20;5.38;;;2.92;;
24305;SDS011;12423;48.768;8.850;2022-08-14T06:05:22;4.65;;;3.00;;
24305;SDS011;12423;48.768;8.850;2022-08-14T06:07:23;4.50;;;3.08;;
24305;SDS011;12423;48.768;8.850;2022-08-14T06:09:24;3.72;;;2.65;;
24305;SDS011;12423;48.768;8.850;2022-08-14T06:11:25;4.38;;;2.95;;
24305;SDS011;12423;48.768;8.850;2022-08-14T06:13:27;3.90;;;2.90;;
24305;SDS011;12423;48.768;8.850;2022-08-14T06:15:32;4.63;;;3.17;;
24305;SDS011;12423;48.768;8.850;2022-08-14T06:17:46;4.45;;;2.83;;
24305;SDS011;12423;48.768;8.850;2022-08-14T06:19:48;10.73;;;3.38;;
24305;SDS011;12423;48.768;8.850;2022-08-14T06:21:49;3.88;;;2.80;;
24305;SDS011;12423;48.768;8.850;2022-08-14T06:23:51;3.72;;;2.70;;
24305;SDS011;12423;48.768;8.850;2022-08-14T06:25:52;3.85;;;3.17;;
24305;SDS011;12423;48.768;8.850;2022-08-14T06:27:53;4.22;;;2.70;;
24305;SDS011;12423;48.768;8.850;2022-08-14T06:29:54;6.40;;;3.17;;
24305;SDS011;12423;48.768;8.850;2022-08-14T06:31:55;5.35;;;3.03;;
24305;SDS011;12423;48.768;8.850;2022-08-14T06:33:56;4.88;;;2.92;;
24305;SDS011;12423;48.768;8.850;2022-08-14T06:35:57;5.63;;;2.88;;
24305;SDS011;12423;48.768;8.850;2022-08-14T06:37:59;3.45;;;2.70;;
24305;SDS011;12423;48.768;8.850;2022-08-14T06:40:00;5.55;;;2.50;;
24305;SDS011;12423;48.768;8.850;2022-08-14T06:42:01;5.50;;;2.80;;
24305;SDS011;12423;48.768;8.850;2022-08-14T06:44:02;5.32;;;3.00;;
24305;SDS011;12423;48.768;8.850;2022-08-14T06:46:03;5.43;;;3.40;;
24305;SDS011;12423;48.768;8.850;2022-08-14T06:48:12;3.83;;;2.90;;
24305;SDS011;12423;48.768;8.850;2022-08-14T06:50:23;4.07;;;2.75;;
24305;SDS011;12423;48.768;8.850;2022-08-14T06:52:26;3.95;;;2.60;;
24305;SDS011;12423;48.768;8.850;2022-08-14T06:54:27;3.63;;;2.58;;
24305;SDS011;12423;48.768;8.850;2022-08-14T06:56:28;3.45;;;2.70;;
24305;SDS011;12423;48.768;8.850;2022-08-14T06:58:29;6.15;;;2.25;;
24305;SDS011;12423;48.768;8.850;2022-08-14T07:00:30;3.90;;;2.63;;
24305;SDS011;12423;48.768;8.850;2022-08-14T07:02:31;4.38;;;2.63;;
24305;SDS011;12423;48.768;8.850;2022-08-14T07:07:10;4.20;;;2.78;;
24305;SDS011;12423;48.768;8.850;2022-08-14T07:09:11;3.75;;;2.40;;
24305;SDS011;12423;48.768;8.850;2022-08-14T07:11:12;4.20;;;2.50;;
24305;SDS011;12423;48.768;8.850;2022-08-14T07:13:13;6.82;;;2.38;;
24305;SDS011;12423;48.768;8.850;2022-08-14T07:15:14;3.38;;;2.45;;
24305;SDS011;12423;48.768;8.850;2022-08-14T07:17:15;3.55;;;2.17;;
24305;SDS011;12423;48.768;8.850;2022-08-14T07:19:17;4.20;;;2.40;;
24305;SDS011;12423;48.768;8.850;2022-08-14T07:21:18;3.10;;;2.50;;
24305;SDS011;12423;48.768;8.850;2022-08-14T07:23:19;4.15;;;2.50;;
24305;SDS011;12423;48.768;8.850;2022-08-14T07:25:23;4.07;;;2.22;;
24305;SDS011;12423;48.768;8.850;2022-08-14T07:27:24;3.90;;;2.80;;
24305;SDS011;12423;48.768;8.850;2022-08-14T07:29:25;3.28;;;2.22;;
24305;SDS011;12423;48.768;8.850;2022-08-14T07:31:26;5.07;;;2.17;;
24305;SDS011;12423;48.768;8.850;2022-08-14T07:33:28;4.07;;;2.30;;
24305;SDS011;12423;48.768;8.850;2022-08-14T07:35:31;2.42;;;1.90;;
24305;SDS011;12423;48.768;8.850;2022-08-14T07:37:33;4.53;;;1.80;;
24305;SDS011;12423;48.768;8.850;2022-08-14T07:39:34;4.03;;;2.00;;
24305;SDS011;12423;48.768;8.850;2022-08-14T07:41:35;5.90;;;2.20;;
24305;SDS011;12423;48.768;8.850;2022-08-14T07:43:37;3.42;;;2.00;;
24305;SDS011;12423;48.768;8.850;2022-08-14T07:45:39;3.17;;;2.10;;
24305;SDS011;12423;48.768;8.850;2022-08-14T07:47:41;3.75;;;1.90;;
24305;SDS011;12423;48.768;8.850;2022-08-14T07:49:45;3.80;;;2.10;;
24305;SDS011;12423;48.768;8.850;2022-08-14T07:51:57;5.50;;;1.92;;
24305;SDS011;12423;48.768;8.850;2022-08-14T07:53:59;5.78;;;1.92;;
24305;SDS011;12423;48.768;8.850;2022-08-14T07:56:00;5.85;;;2.08;;
24305;SDS011;12423;48.768;8.850;2022-08-14T07:58:01;4.53;;;1.95;;
24305;SDS011;12423;48.768;8.850;2022-08-14T08:00:04;3.03;;;1.85;;
24305;SDS011;12423;48.768;8.850;2022-08-14T08:02:13;3.55;;;1.90;;
24305;SDS011;12423;48.768;8.850;2022-08-14T08:04:15;3.00;;;2.00;;
24305;SDS011;12423;48.768;8.850;2022-08-14T08:06:19;3.88;;;1.90;;
24305;SDS011;12423;48.768;8.850;2022-08-14T08:08:20;2.88;;;2.08;;
24305;SDS011;12423;48.768;8.850;2022-08-14T08:10:25;5.20;;;2.10;;
24305;SDS011;12423;48.768;8.850;2022-08-14T08:12:33;2.78;;;1.95;;
24305;SDS011;12423;48.768;8.850;2022-08-14T08:14:34;3.60;;;1.90;;
24305;SDS011;12423;48.768;8.850;2022-08-14T08:16:36;4.30;;;1.80;;
24305;SDS011;12423;48.768;8.850;2022-08-14T08:18:37;2.90;;;1.80;;
24305;SDS011;12423;48.768;8.850;2022-08-14T08:20:39;3.80;;;1.58;;
24305;SDS011;12423;48.768;8.850;2022-08-14T08:22:42;3.67;;;1.95;;
24305;SDS011;12423;48.768;8.850;2022-08-14T08:24:43;3.22;;;2.03;;
24305;SDS011;12423;48.768;8.850;2022-08-14T08:26:44;2.97;;;1.85;;
24305;SDS011;12423;48.768;8.850;2022-08-14T08:28:55;3.15;;;1.80;;
24305;SDS011;12423;48.768;8.850;2022-08-14T08:30:58;2.58;;;1.88;;
24305;SDS011;12423;48.768;8.850;2022-08-14T08:33:00;3.38;;;1.70;;
24305;SDS011;12423;48.768;8.850;2022-08-14T08:35:01;5.32;;;1.88;;
24305;SDS011;12423;48.768;8.850;2022-08-14T08:37:03;3.13;;;1.75;;
24305;SDS011;12423;48.768;8.850;2022-08-14T08:39:04;2.45;;;1.67;;
24305;SDS011;12423;48.768;8.850;2022-08-14T08:41:05;2.70;;;1.80;;
24305;SDS011;12423;48.768;8.850;2022-08-14T08:43:07;2.50;;;1.90;;
24305;SDS011;12423;48.768;8.850;2022-08-14T08:45:16;2.30;;;1.73;;
24305;SDS011;12423;48.768;8.850;2022-08-14T08:47:17;3.33;;;1.80;;
24305;SDS011;12423;48.768;8.850;2022-08-14T08:49:18;6.00;;;2.05;;
24305;SDS011;12423;48.768;8.850;2022-08-14T08:53:31;2.63;;;1.83;;
24305;SDS011;12423;48.768;8.850;2022-08-14T08:57:35;5.32;;;1.80;;
24305;SDS011;12423;48.768;8.850;2022-08-14T08:59:37;4.18;;;2.00;;
24305;SDS011;12423;48.768;8.850;2022-08-14T09:01:38;5.07;;;1.77;;
24305;SDS011;12423;48.768;8.850;2022-08-14T09:03:40;2.60;;;1.73;;
24305;SDS011;12423;48.768;8.850;2022-08-14T09:08:07;3.45;;;2.38;;
24305;SDS011;12423;48.768;8.850;2022-08-14T09:10:09;2.92;;;2.10;;
24305;SDS011;12423;48.768;8.850;2022-08-14T09:12:10;4.50;;;2.30;;
24305;SDS011;12423;48.768;8.850;2022-08-14T09:14:11;4.40;;;2.22;;
24305;SDS011;12423;48.768;8.850;2022-08-14T09:16:12;2.42;;;1.77;;
24305;SDS011;12423;48.768;8.850;2022-08-14T09:18:15;2.58;;;1.80;;
24305;SDS011;12423;48.768;8.850;2022-08-14T09:20:17;9.45;;;2.13;;
24305;SDS011;12423;48.768;8.850;2022-08-14T09:22:18;2.97;;;1.65;;
24305;SDS011;12423;48.768;8.850;2022-08-14T09:24:20;7.28;;;2.08;;
24305;SDS011;12423;48.768;8.850;2022-08-14T09:26:21;3.10;;;2.00;;
24305;SDS011;12423;48.768;8.850;2022-08-14T09:28:22;2.45;;;1.65;;
24305;SDS011;12423;48.768;8.850;2022-08-14T09:30:23;3.20;;;1.70;;
24305;SDS011;12423;48.768;8.850;2022-08-14T09:32:26;2.60;;;1.77;;
24305;SDS011;12423;48.768;8.850;2022-08-14T09:42:02;2.97;;;1.90;;
24305;SDS011;12423;48.768;8.850;2022-08-14T09:46:56;3.92;;;1.95;;
24305;SDS011;12423;48.768;8.850;2022-08-14T09:48:58;2.25;;;1.70;;
24305;SDS011;12423;48.768;8.850;2022-08-14T09:51:00;4.68;;;1.90;;
24305;SDS011;12423;48.768;8.850;2022-08-14T09:53:05;2.83;;;1.92;;
24305;SDS011;12423;48.768;8.850;2022-08-14T09:55:14;2.40;;;1.70;;
24305;SDS011;12423;48.768;8.850;2022-08-14T09:57:25;2.38;;;1.65;;
24305;SDS011;12423;48.768;8.850;2022-08-14T09:59:27;3.90;;;2.10;;
24305;SDS011;12423;48.768;8.850;2022-08-14T10:01:49;3.88;;;1.90;;
24305;SDS011;12423;48.768;8.850;2022-08-14T10:03:51;4.22;;;1.80;;
24305;SDS011;12423;48.768;8.850;2022-08-14T10:08:16;3.05;;;1.77;;
24305;SDS011;12423;48.768;8.850;2022-08-14T10:10:26;2.80;;;1.77;;
24305;SDS011;12423;48.768;8.850;2022-08-14T10:12:44;2.67;;;2.00;;
24305;SDS011;12423;48.768;8.850;2022-08-14T10:14:48;4.00;;;2.08;;
24305;SDS011;12423;48.768;8.850;2022-08-14T10:16:53;2.83;;;1.60;;
24305;SDS011;12423;48.768;8.850;2022-08-14T10:19:05;2.75;;;1.60;;
24305;SDS011;12423;48.768;8.850;2022-08-14T10:21:14;2.83;;;1.52;;
24305;SDS011;12423;48.768;8.850;2022-08-14T10:23:18;2.80;;;2.10;;
24305;SDS011;12423;48.768;8.850;2022-08-14T10:25:22;3.88;;;1.77;;
24305;SDS011;12423;48.768;8.850;2022-08-14T10:27:24;2.80;;;1.90;;
24305;SDS011;12423;48.768;8.850;2022-08-14T10:29:35;5.18;;;2.03;;
24305;SDS011;12423;48.768;8.850;2022-08-14T10:31:40;3.55;;;1.88;;
24305;SDS011;12423;48.768;8.850;2022-08-14T10:33:42;2.22;;;1.52;;
24305;SDS011;12423;48.768;8.850;2022-08-14T10:35:43;3.55;;;1.63;;
24305;SDS011;12423;48.768;8.850;2022-08-14T10:37:45;3.58;;;1.65;;
24305;SDS011;12423;48.768;8.850;2022-08-14T10:40:00;4.15;;;1.70;;
24305;SDS011;12423;48.768;8.850;2022-08-14T10:42:03;2.20;;;1.75;;
24305;SDS011;12423;48.768;8.850;2022-08-14T10:46:18;2.58;;;1.42;;
24305;SDS011;12423;48.768;8.850;2022-08-14T10:48:19;3.20;;;1.73;;
24305;SDS011;12423;48.768;8.850;2022-08-14T10:50:30;2.85;;;1.85;;
24305;SDS011;12423;48.768;8.850;2022-08-14T10:52:32;3.80;;;1.75;;
24305;SDS011;12423;48.768;8.850;2022-08-14T10:54:36;3.20;;;1.95;;
24305;SDS011;12423;48.768;8.850;2022-08-14T10:56:39;2.80;;;1.60;;
24305;SDS011;12423;48.768;8.850;2022-08-14T10:58:40;4.43;;;1.90;;
24305;SDS011;12423;48.768;8.850;2022-08-14T11:00:41;3.03;;;1.98;;
24305;SDS011;12423;48.768;8.850;2022-08-14T11:02:55;3.22;;;1.80;;
24305;SDS011;12423;48.768;8.850;2022-08-14T11:07:02;3.50;;;1.73;;
24305;SDS011;12423;48.768;8.850;2022-08-14T11:09:14;3.85;;;1.88;;
24305;SDS011;12423;48.768;8.850;2022-08-14T11:11:15;3.05;;;1.45;;
24305;SDS011;12423;48.768;8.850;2022-08-14T11:13:18;3.38;;;2.00;;
24305;SDS011;12423;48.768;8.850;2022-08-14T11:15:24;2.53;;;1.60;;
24305;SDS011;12423;48.768;8.850;2022-08-14T11:17:27;3.97;;;2.10;;
24305;SDS011;12423;48.768;8.850;2022-08-14T11:19:32;3.50;;;1.60;;
24305;SDS011;12423;48.768;8.850;2022-08-14T11:21:33;2.25;;;1.55;;
24305;SDS011;12423;48.768;8.850;2022-08-14T11:23:39;3.88;;;1.95;;
24305;SDS011;12423;48.768;8.850;2022-08-14T11:25:42;2.35;;;1.60;;
24305;SDS011;12423;48.768;8.850;2022-08-14T11:27:45;5.13;;;1.58;;
24305;SDS011;12423;48.768;8.850;2022-08-14T11:29:47;3.40;;;1.50;;
24305;SDS011;12423;48.768;8.850;2022-08-14T11:31:50;2.22;;;1.60;;
24305;SDS011;12423;48.768;8.850;2022-08-14T11:33:54;2.47;;;1.90;;
24305;SDS011;12423;48.768;8.850;2022-08-14T11:35:57;2.00;;;1.50;;
24305;SDS011;12423;48.768;8.850;2022-08-14T11:38:02;2.25;;;1.50;;
24305;SDS011;12423;48.768;8.850;2022-08-14T11:40:13;1.90;;;1.38;;
24305;SDS011;12423;48.768;8.850;2022-08-14T11:42:20;2.72;;;1.52;;
24305;SDS011;12423;48.768;8.850;2022-08-14T11:44:23;5.03;;;1.50;;
24305;SDS011;12423;48.768;8.850;2022-08-14T11:46:24;2.13;;;1.50;;
24305;SDS011;12423;48.768;8.850;2022-08-14T11:48:26;2.22;;;1.50;;
24305;SDS011;12423;48.768;8.850;2022-08-14T11:50:28;2.72;;;1.55;;
24305;SDS011;12423;48.768;8.850;2022-08-14T11:52:33;2.10;;;1.40;;
24305;SDS011;12423;48.768;8.850;2022-08-14T11:54:37;3.75;;;1.30;;
24305;SDS011;12423;48.768;8.850;2022-08-14T11:56:39;2.40;;;1.40;;
24305;SDS011;12423;48.768;8.850;2022-08-14T11:58:43;2.25;;;1.30;;
24305;SDS011;12423;48.768;8.850;2022-08-14T12:00:51;2.05;;;1.30;;
24305;SDS011;12423;48.768;8.850;2022-08-14T12:02:55;3.65;;;1.45;;
24305;SDS011;12423;48.768;8.850;2022-08-14T12:04:57;2.13;;;1.13;;
24305;SDS011;12423;48.768;8.850;2022-08-14T12:06:58;1.90;;;1.13;;
24305;SDS011;12423;48.768;8.850;2022-08-14T12:09:00;2.05;;;1.15;;
24305;SDS011;12423;48.768;8.850;2022-08-14T12:11:01;2.42;;;1.30;;
24305;SDS011;12423;48.768;8.850;2022-08-14T12:13:14;4.05;;;1.48;;
24305;SDS011;12423;48.768;8.850;2022-08-14T12:15:32;2.33;;;1.20;;
24305;SDS011;12423;48.768;8.850;2022-08-14T12:17:45;2.90;;;1.50;;
24305;SDS011;12423;48.768;8.850;2022-08-14T12:19:53;1.90;;;1.40;;
24305;SDS011;12423;48.768;8.850;2022-08-14T12:21:54;1.70;;;1.27;;
24305;SDS011;12423;48.768;8.850;2022-08-14T12:23:59;4.93;;;1.83;;
24305;SDS011;12423;48.768;8.850;2022-08-14T12:26:04;3.42;;;1.30;;
24305;SDS011;12423;48.768;8.850;2022-08-14T12:28:09;1.80;;;1.38;;
24305;SDS011;12423;48.768;8.850;2022-08-14T12:30:12;1.77;;;1.30;;
24305;SDS011;12423;48.768;8.850;2022-08-14T12:32:14;2.25;;;1.48;;
24305;SDS011;12423;48.768;8.850;2022-08-14T12:34:16;2.92;;;1.50;;
24305;SDS011;12423;48.768;8.850;2022-08-14T12:36:20;6.68;;;1.60;;
24305;SDS011;12423;48.768;8.850;2022-08-14T12:38:31;2.00;;;1.20;;
24305;SDS011;12423;48.768;8.850;2022-08-14T12:40:50;3.17;;;1.70;;
24305;SDS011;12423;48.768;8.850;2022-08-14T12:42:52;3.33;;;1.30;;
24305;SDS011;12423;48.768;8.850;2022-08-14T12:45:03;1.85;;;1.17;;
24305;SDS011;12423;48.768;8.850;2022-08-14T12:47:09;2.75;;;1.30;;
24305;SDS011;12423;48.768;8.850;2022-08-14T12:49:17;3.75;;;1.30;;
24305;SDS011;12423;48.768;8.850;2022-08-14T12:51:23;2.53;;;1.30;;
24305;SDS011;12423;48.768;8.850;2022-08-14T12:53:33;2.85;;;1.30;;